sensor_id;sensor_type;location;lat;lon;timestamp;pressure;altitude;pressure_sealevel;temperature;humidity
36380;BME280;22411;53.016;18.632;2024-03-29T00:00:54;98253.75;;;5.73;100.00
36380;BME280;22411;53.016;18.632;2024-03-29T00:03:40;98270.78;;;5.74;100.00
36380;BME280;22411;53.016;18.632;2024-03-29T00:06:05;98272.00;;;5.70;100.00
36380;BME280;22411;53.016;18.632;2024-03-29T00:08:31;98282.09;;;5.62;100.00
36380;BME280;22411;53.016;18.632;2024-03-29T00:10:57;98296.13;;;5.58;100.00
36380;BME280;22411;53.016;18.632;2024-03-29T00:13:23;98294.28;;;5.60;100.00
36380;BME280;22411;53.016;18.632;2024-03-29T00:15:48;98288.25;;;5.49;100.00
36380;BME280;22411;53.016;18.632;2024-03-29T00:18:14;98285.31;;;5.54;100.00
36380;BME280;22411;53.016;18.632;2024-03-29T00:20:39;98290.94;;;5.48;100.00
36380;BME280;22411;53.016;18.632;2024-03-29T00:23:05;98310.56;;;5.49;100.00
36380;BME280;22411;53.016;18.632;2024-03-29T00:25:31;98309.44;;;5.42;100.00
36380;BME280;22411;53.016;18.632;2024-03-29T00:27:56;98315.38;;;5.42;100.00
36380;BME280;22411;53.016;18.632;2024-03-29T00:30:22;98322.91;;;5.34;100.00
36380;BME280;22411;53.016;18.632;2024-03-29T00:32:48;98331.44;;;5.35;100.00
36380;BME280;22411;53.016;18.632;2024-03-29T00:35:13;98330.63;;;5.34;100.00
36380;BME280;22411;53.016;18.632;2024-03-29T00:37:40;98346.16;;;5.33;100.00
36380;BME280;22411;53.016;18.632;2024-03-29T00:40:06;98341.13;;;5.31;100.00
36380;BME280;22411;53.016;18.632;2024-03-29T00:42:32;98354.41;;;5.36;100.00
36380;BME280;22411;53.016;18.632;2024-03-29T00:44:57;98370.47;;;5.29;100.00
36380;BME280;22411;53.016;18.632;2024-03-29T00:47:23;98377.34;;;5.28;100.00
36380;BME280;22411;53.016;18.632;2024-03-29T00:49:49;98385.41;;;5.23;100.00
36380;BME280;22411;53.016;18.632;2024-03-29T00:52:15;98392.41;;;5.21;100.00
36380;BME280;22411;53.016;18.632;2024-03-29T00:54:41;98401.06;;;5.20;100.00
36380;BME280;22411;53.016;18.632;2024-03-29T00:57:07;98414.25;;;5.16;100.00
36380;BME280;22411;53.016;18.632;2024-03-29T00:59:37;98405.75;;;5.15;100.00
36380;BME280;22411;53.016;18.632;2024-03-29T01:02:03;98407.84;;;5.10;100.00
36380;BME280;22411;53.016;18.632;2024-03-29T01:04:29;98413.59;;;5.14;100.00
36380;BME280;22411;53.016;18.632;2024-03-29T01:06:55;98425.16;;;5.08;100.00
36380;BME280;22411;53.016;18.632;2024-03-29T01:09:21;98430.28;;;5.08;100.00
36380;BME280;22411;53.016;18.632;2024-03-29T01:11:47;98423.97;;;5.12;100.00
36380;BME280;22411;53.016;18.632;2024-03-29T01:14:13;98433.34;;;5.02;100.00
36380;BME280;22411;53.016;18.632;2024-03-29T01:16:38;98430.41;;;5.07;100.00
36380;BME280;22411;53.016;18.632;2024-03-29T01:19:04;98434.28;;;5.01;100.00
36380;BME280;22411;53.016;18.632;2024-03-29T01:21:31;98440.22;;;5.02;100.00
36380;BME280;22411;53.016;18.632;2024-03-29T01:23:56;98444.44;;;5.03;100.00
36380;BME280;22411;53.016;18.632;2024-03-29T01:26:22;98452.63;;;4.96;100.00
36380;BME280;22411;53.016;18.632;2024-03-29T01:28:47;98451.78;;;4.96;100.00
36380;BME280;22411;53.016;18.632;2024-03-29T01:31:13;98457.16;;;4.93;100.00
36380;BME280;22411;53.016;18.632;2024-03-29T01:33:39;98459.88;;;4.80;100.00
36380;BME280;22411;53.016;18.632;2024-03-29T01:36:07;98470.47;;;4.87;100.00
36380;BME280;22411;53.016;18.632;2024-03-29T01:38:32;98462.66;;;4.77;100.00
36380;BME280;22411;53.016;18.632;2024-03-29T01:40:58;98459.84;;;4.69;100.00
36380;BME280;22411;53.016;18.632;2024-03-29T01:43:24;98460.31;;;4.74;100.00
36380;BME280;22411;53.016;18.632;2024-03-29T01:45:53;98475.38;;;4.79;100.00
36380;BME280;22411;53.016;18.632;2024-03-29T01:48:20;98492.28;;;4.59;100.00
36380;BME280;22411;53.016;18.632;2024-03-29T01:50:47;98498.34;;;4.58;100.00
36380;BME280;22411;53.016;18.632;2024-03-29T01:53:14;98502.44;;;4.60;100.00
36380;BME280;22411;53.016;18.632;2024-03-29T01:55:41;98505.94;;;4.59;100.00
36380;BME280;22411;53.016;18.632;2024-03-29T01:58:08;98510.25;;;4.59;100.00
36380;BME280;22411;53.016;18.632;2024-03-29T02:00:38;98516.88;;;4.50;100.00
36380;BME280;22411;53.016;18.632;2024-03-29T02:03:05;98532.88;;;4.54;100.00
36380;BME280;22411;53.016;18.632;2024-03-29T02:05:39;98522.94;;;4.49;100.00
36380;BME280;22411;53.016;18.632;2024-03-29T02:08:06;98527.38;;;4.47;100.00
36380;BME280;22411;53.016;18.632;2024-03-29T02:10:32;98546.50;;;4.43;100.00
36380;BME280;22411;53.016;18.632;2024-03-29T02:12:58;98556.41;;;4.47;100.00
36380;BME280;22411;53.016;18.632;2024-03-29T02:15:24;98568.88;;;4.41;100.00
36380;BME280;22411;53.016;18.632;2024-03-29T02:17:49;98561.41;;;4.38;100.00
36380;BME280;22411;53.016;18.632;2024-03-29T02:20:16;98563.50;;;4.33;100.00
36380;BME280;22411;53.016;18.632;2024-03-29T02:22:54;98577.34;;;4.30;100.00
36380;BME280;22411;53.016;18.632;2024-03-29T02:25:21;98580.72;;;4.31;100.00
36380;BME280;22411;53.016;18.632;2024-03-29T02:27:47;98581.84;;;4.15;100.00
36380;BME280;22411;53.016;18.632;2024-03-29T02:30:17;98583.81;;;4.12;100.00
36380;BME280;22411;53.016;18.632;2024-03-29T02:32:43;98591.50;;;4.12;100.00
36380;BME280;22411;53.016;18.632;2024-03-29T02:35:08;98592.34;;;4.12;100.00
36380;BME280;22411;53.016;18.632;2024-03-29T02:37:37;98591.03;;;4.07;100.00
36380;BME280;22411;53.016;18.632;2024-03-29T02:40:07;98599.88;;;4.03;100.00
36380;BME280;22411;53.016;18.632;2024-03-29T02:42:36;98607.66;;;4.01;100.00
36380;BME280;22411;53.016;18.632;2024-03-29T02:45:03;98613.69;;;4.00;100.00
36380;BME280;22411;53.016;18.632;2024-03-29T02:47:29;98623.63;;;4.05;100.00
36380;BME280;22411;53.016;18.632;2024-03-29T02:49:55;98621.81;;;3.94;100.00
36380;BME280;22411;53.016;18.632;2024-03-29T02:52:21;98614.25;;;3.92;100.00
36380;BME280;22411;53.016;18.632;2024-03-29T02:54:46;98621.13;;;3.92;100.00
36380;BME280;22411;53.016;18.632;2024-03-29T02:57:12;98620.63;;;3.87;100.00
36380;BME280;22411;53.016;18.632;2024-03-29T02:59:39;98622.28;;;3.88;100.00
36380;BME280;22411;53.016;18.632;2024-03-29T03:02:05;98627.72;;;3.83;100.00
36380;BME280;22411;53.016;18.632;2024-03-29T03:04:31;98632.13;;;3.81;100.00
36380;BME280;22411;53.016;18.632;2024-03-29T03:06:56;98627.34;;;3.77;100.00
36380;BME280;22411;53.016;18.632;2024-03-29T03:09:42;98620.06;;;3.71;100.00
36380;BME280;22411;53.016;18.632;2024-03-29T03:12:29;98624.28;;;3.72;100.00
36380;BME280;22411;53.016;18.632;2024-03-29T03:14:55;98628.41;;;3.61;100.00
36380;BME280;22411;53.016;18.632;2024-03-29T03:17:20;98623.38;;;3.60;100.00
36380;BME280;22411;53.016;18.632;2024-03-29T03:19:46;98626.97;;;3.57;100.00
36380;BME280;22411;53.016;18.632;2024-03-29T03:22:12;98641.75;;;3.54;100.00
36380;BME280;22411;53.016;18.632;2024-03-29T03:24:38;98638.56;;;3.50;100.00
36380;BME280;22411;53.016;18.632;2024-03-29T03:27:04;98643.47;;;3.53;100.00
36380;BME280;22411;53.016;18.632;2024-03-29T03:29:30;98652.91;;;3.53;100.00
36380;BME280;22411;53.016;18.632;2024-03-29T03:31:55;98647.09;;;3.38;100.00
36380;BME280;22411;53.016;18.632;2024-03-29T03:34:21;98648.84;;;3.37;100.00
36380;BME280;22411;53.016;18.632;2024-03-29T03:36:46;98648.00;;;3.37;100.00
36380;BME280;22411;53.016;18.632;2024-03-29T03:39:12;98661.75;;;3.36;100.00
36380;BME280;22411;53.016;18.632;2024-03-29T03:41:38;98662.78;;;3.33;100.00
36380;BME280;22411;53.016;18.632;2024-03-29T03:44:03;98657.84;;;3.30;100.00
36380;BME280;22411;53.016;18.632;2024-03-29T03:46:29;98668.63;;;3.23;100.00
36380;BME280;22411;53.016;18.632;2024-03-29T03:48:55;98661.75;;;3.23;100.00
36380;BME280;22411;53.016;18.632;2024-03-29T03:51:20;98672.00;;;3.23;100.00
36380;BME280;22411;53.016;18.632;2024-03-29T03:53:46;98673.22;;;3.18;100.00
36380;BME280;22411;53.016;18.632;2024-03-29T03:56:12;98666.47;;;3.17;100.00
36380;BME280;22411;53.016;18.632;2024-03-29T03:58:37;98659.81;;;3.14;100.00
36380;BME280;22411;53.016;18.632;2024-03-29T04:01:05;98664.13;;;3.13;100.00
36380;BME280;22411;53.016;18.632;2024-03-29T04:03:31;98668.53;;;3.11;100.00
36380;BME280;22411;53.016;18.632;2024-03-29T04:05:57;98664.63;;;3.06;100.00
36380;BME280;22411;53.016;18.632;2024-03-29T04:08:23;98659.81;;;3.01;100.00
36380;BME280;22411;53.016;18.632;2024-03-29T04:10:48;98665.00;;;3.00;100.00
36380;BME280;22411;53.016;18.632;2024-03-29T04:13:14;98660.19;;;2.95;100.00
36380;BME280;22411;53.016;18.632;2024-03-29T04:15:40;98667.28;;;2.92;100.00
36380;BME280;22411;53.016;18.632;2024-03-29T04:18:06;98661.75;;;2.85;100.00
36380;BME280;22411;53.016;18.632;2024-03-29T04:20:31;98668.00;;;2.81;100.00
36380;BME280;22411;53.016;18.632;2024-03-29T04:22:57;98661.94;;;2.82;100.00
36380;BME280;22411;53.016;18.632;2024-03-29T04:25:23;98670.53;;;2.81;100.00
36380;BME280;22411;53.016;18.632;2024-03-29T04:27:49;98671.16;;;2.84;100.00
36380;BME280;22411;53.016;18.632;2024-03-29T04:30:14;98672.19;;;2.82;100.00
36380;BME280;22411;53.016;18.632;2024-03-29T04:32:40;98675.66;;;2.81;100.00
36380;BME280;22411;53.016;18.632;2024-03-29T04:35:06;98670.84;;;2.76;100.00
36380;BME280;22411;53.016;18.632;2024-03-29T04:37:32;98673.41;;;2.76;100.00
36380;BME280;22411;53.016;18.632;2024-03-29T04:39:58;98679.16;;;2.80;100.00
36380;BME280;22411;53.016;18.632;2024-03-29T04:42:24;98684.25;;;2.80;100.00
36380;BME280;22411;53.016;18.632;2024-03-29T04:44:49;98687.81;;;2.77;100.00
36380;BME280;22411;53.016;18.632;2024-03-29T04:47:16;98686.81;;;2.80;100.00
36380;BME280;22411;53.016;18.632;2024-03-29T04:49:42;98691.00;;;2.81;100.00
36380;BME280;22411;53.016;18.632;2024-03-29T04:52:08;98700.50;;;2.79;100.00
36380;BME280;22411;53.016;18.632;2024-03-29T04:54:34;98695.91;;;2.84;100.00
36380;BME280;22411;53.016;18.632;2024-03-29T04:57:01;98708.72;;;2.84;100.00
36380;BME280;22411;53.016;18.632;2024-03-29T04:59:34;98714.56;;;2.86;100.00
36380;BME280;22411;53.016;18.632;2024-03-29T05:02:01;98705.44;;;2.82;100.00
36380;BME280;22411;53.016;18.632;2024-03-29T05:04:27;98700.13;;;2.85;100.00
36380;BME280;22411;53.016;18.632;2024-03-29T05:06:57;98704.63;;;2.81;100.00
36380;BME280;22411;53.016;18.632;2024-03-29T05:09:24;98708.63;;;2.85;100.00
36380;BME280;22411;53.016;18.632;2024-03-29T05:11:50;98716.63;;;2.94;100.00
36380;BME280;22411;53.016;18.632;2024-03-29T05:14:17;98719.69;;;2.99;100.00
36380;BME280;22411;53.016;18.632;2024-03-29T05:16:47;98715.63;;;3.09;100.00
36380;BME280;22411;53.016;18.632;2024-03-29T05:19:15;98719.00;;;3.09;100.00
36380;BME280;22411;53.016;18.632;2024-03-29T05:21:41;98722.06;;;3.14;100.00
36380;BME280;22411;53.016;18.632;2024-03-29T05:24:08;98718.28;;;3.20;100.00
36380;BME280;22411;53.016;18.632;2024-03-29T05:26:33;98715.41;;;3.25;100.00
36380;BME280;22411;53.016;18.632;2024-03-29T05:29:00;98712.97;;;3.23;100.00
36380;BME280;22411;53.016;18.632;2024-03-29T05:31:26;98715.13;;;3.29;100.00
36380;BME280;22411;53.016;18.632;2024-03-29T05:33:52;98707.84;;;3.36;100.00
36380;BME280;22411;53.016;18.632;2024-03-29T05:36:18;98709.97;;;3.42;100.00
36380;BME280;22411;53.016;18.632;2024-03-29T05:38:45;98709.59;;;3.48;100.00
36380;BME280;22411;53.016;18.632;2024-03-29T05:41:11;98701.69;;;3.51;100.00
36380;BME280;22411;53.016;18.632;2024-03-29T05:43:38;98705.44;;;3.58;100.00
36380;BME280;22411;53.016;18.632;2024-03-29T05:46:04;98721.34;;;3.63;100.00
36380;BME280;22411;53.016;18.632;2024-03-29T05:48:29;98720.22;;;3.67;100.00
36380;BME280;22411;53.016;18.632;2024-03-29T05:50:55;98722.47;;;3.72;100.00
36380;BME280;22411;53.016;18.632;2024-03-29T05:53:21;98730.03;;;3.86;100.00
36380;BME280;22411;53.016;18.632;2024-03-29T05:55:47;98739.97;;;3.91;100.00
36380;BME280;22411;53.016;18.632;2024-03-29T05:58:12;98743.63;;;4.00;100.00
36380;BME280;22411;53.016;18.632;2024-03-29T06:00:43;98746.69;;;4.05;100.00
36380;BME280;22411;53.016;18.632;2024-03-29T06:03:09;98745.13;;;4.15;100.00
36380;BME280;22411;53.016;18.632;2024-03-29T06:05:35;98753.94;;;4.24;100.00
36380;BME280;22411;53.016;18.632;2024-03-29T06:08:01;98748.56;;;4.39;100.00
36380;BME280;22411;53.016;18.632;2024-03-29T06:10:26;98772.66;;;4.37;100.00
36380;BME280;22411;53.016;18.632;2024-03-29T06:12:52;98772.72;;;4.48;100.00
36380;BME280;22411;53.016;18.632;2024-03-29T06:15:18;98767.66;;;4.59;100.00
36380;BME280;22411;53.016;18.632;2024-03-29T06:18:02;98774.38;;;4.73;100.00
36380;BME280;22411;53.016;18.632;2024-03-29T06:20:28;98778.06;;;4.69;100.00
36380;BME280;22411;53.016;18.632;2024-03-29T06:22:54;98787.81;;;4.77;100.00
36380;BME280;22411;53.016;18.632;2024-03-29T06:25:20;98785.84;;;4.80;100.00
36380;BME280;22411;53.016;18.632;2024-03-29T06:27:45;98785.91;;;4.91;100.00
36380;BME280;22411;53.016;18.632;2024-03-29T06:30:14;98782.75;;;4.99;100.00
36380;BME280;22411;53.016;18.632;2024-03-29T06:32:44;98773.91;;;5.03;100.00
36380;BME280;22411;53.016;18.632;2024-03-29T06:35:11;98784.31;;;5.02;100.00
36380;BME280;22411;53.016;18.632;2024-03-29T06:37:38;98781.66;;;5.14;100.00
36380;BME280;22411;53.016;18.632;2024-03-29T06:40:05;98782.00;;;5.21;100.00
36380;BME280;22411;53.016;18.632;2024-03-29T06:42:31;98783.78;;;5.32;100.00
36380;BME280;22411;53.016;18.632;2024-03-29T06:44:57;98784.03;;;5.29;100.00
36380;BME280;22411;53.016;18.632;2024-03-29T06:47:25;98797.34;;;5.34;100.00
36380;BME280;22411;53.016;18.632;2024-03-29T06:49:50;98789.31;;;5.38;100.00
36380;BME280;22411;53.016;18.632;2024-03-29T06:52:16;98802.41;;;5.46;100.00
36380;BME280;22411;53.016;18.632;2024-03-29T06:54:42;98801.84;;;5.54;100.00
36380;BME280;22411;53.016;18.632;2024-03-29T06:57:07;98791.09;;;5.60;100.00
36380;BME280;22411;53.016;18.632;2024-03-29T06:59:35;98786.56;;;5.75;100.00
36380;BME280;22411;53.016;18.632;2024-03-29T07:02:01;98773.13;;;5.83;100.00
36380;BME280;22411;53.016;18.632;2024-03-29T07:04:27;98779.22;;;5.93;100.00
36380;BME280;22411;53.016;18.632;2024-03-29T07:06:54;98774.66;;;6.08;100.00
36380;BME280;22411;53.016;18.632;2024-03-29T07:09:23;98759.81;;;6.22;100.00
36380;BME280;22411;53.016;18.632;2024-03-29T07:11:50;98761.28;;;6.36;100.00
36380;BME280;22411;53.016;18.632;2024-03-29T07:14:17;98759.31;;;6.28;100.00
36380;BME280;22411;53.016;18.632;2024-03-29T07:16:44;98750.84;;;6.49;100.00
36380;BME280;22411;53.016;18.632;2024-03-29T07:19:11;98750.63;;;6.41;100.00
36380;BME280;22411;53.016;18.632;2024-03-29T07:21:39;98766.28;;;6.49;100.00
36380;BME280;22411;53.016;18.632;2024-03-29T07:24:05;98770.25;;;6.53;100.00
36380;BME280;22411;53.016;18.632;2024-03-29T07:26:32;98806.03;;;6.56;100.00
36380;BME280;22411;53.016;18.632;2024-03-29T07:28:58;98783.34;;;6.61;100.00
36380;BME280;22411;53.016;18.632;2024-03-29T07:31:23;98795.84;;;6.66;100.00
36380;BME280;22411;53.016;18.632;2024-03-29T07:33:49;98802.50;;;6.68;100.00
36380;BME280;22411;53.016;18.632;2024-03-29T07:36:15;98820.28;;;6.71;100.00
36380;BME280;22411;53.016;18.632;2024-03-29T07:38:42;98821.91;;;6.72;100.00
36380;BME280;22411;53.016;18.632;2024-03-29T07:41:09;98818.25;;;6.86;100.00
36380;BME280;22411;53.016;18.632;2024-03-29T07:43:39;98828.75;;;6.94;100.00
36380;BME280;22411;53.016;18.632;2024-03-29T07:46:07;98826.03;;;7.07;100.00
36380;BME280;22411;53.016;18.632;2024-03-29T07:48:34;98821.44;;;7.11;100.00
36380;BME280;22411;53.016;18.632;2024-03-29T07:51:00;98828.75;;;7.26;100.00
36380;BME280;22411;53.016;18.632;2024-03-29T07:53:26;98840.16;;;7.45;100.00
36380;BME280;22411;53.016;18.632;2024-03-29T07:55:52;98834.34;;;7.52;100.00
36380;BME280;22411;53.016;18.632;2024-03-29T07:58:18;98847.53;;;7.59;100.00
36380;BME280;22411;53.016;18.632;2024-03-29T08:00:44;98839.56;;;7.62;100.00
36380;BME280;22411;53.016;18.632;2024-03-29T08:03:10;98848.25;;;7.61;100.00
36380;BME280;22411;53.016;18.632;2024-03-29T08:05:35;98844.06;;;7.60;100.00
36380;BME280;22411;53.016;18.632;2024-03-29T08:08:02;98845.59;;;7.72;100.00
36380;BME280;22411;53.016;18.632;2024-03-29T08:10:29;98858.25;;;7.75;100.00
36380;BME280;22411;53.016;18.632;2024-03-29T08:12:55;98849.31;;;7.79;100.00
36380;BME280;22411;53.016;18.632;2024-03-29T08:15:21;98843.22;;;7.80;100.00
36380;BME280;22411;53.016;18.632;2024-03-29T08:17:50;98844.19;;;7.89;100.00
36380;BME280;22411;53.016;18.632;2024-03-29T08:20:16;98850.81;;;8.03;100.00
36380;BME280;22411;53.016;18.632;2024-03-29T08:22:41;98862.03;;;8.32;100.00
36380;BME280;22411;53.016;18.632;2024-03-29T08:25:07;98863.31;;;8.38;100.00
36380;BME280;22411;53.016;18.632;2024-03-29T08:27:34;98861.34;;;8.51;100.00
36380;BME280;22411;53.016;18.632;2024-03-29T08:30:00;98853.19;;;8.56;100.00
36380;BME280;22411;53.016;18.632;2024-03-29T08:32:26;98867.50;;;8.60;100.00
36380;BME280;22411;53.016;18.632;2024-03-29T08:34:51;98872.28;;;8.84;100.00
36380;BME280;22411;53.016;18.632;2024-03-29T08:37:18;98880.56;;;8.78;100.00
36380;BME280;22411;53.016;18.632;2024-03-29T08:39:43;98874.06;;;8.93;100.00
36380;BME280;22411;53.016;18.632;2024-03-29T08:42:09;98872.34;;;9.13;100.00
36380;BME280;22411;53.016;18.632;2024-03-29T08:44:37;98878.59;;;9.10;100.00
36380;BME280;22411;53.016;18.632;2024-03-29T08:47:06;98874.09;;;9.22;100.00
36380;BME280;22411;53.016;18.632;2024-03-29T08:49:31;98864.03;;;9.29;100.00
36380;BME280;22411;53.016;18.632;2024-03-29T08:51:58;98863.75;;;9.51;100.00
36380;BME280;22411;53.016;18.632;2024-03-29T08:54:24;98875.59;;;9.54;100.00
36380;BME280;22411;53.016;18.632;2024-03-29T08:56:50;98873.03;;;9.44;100.00
36380;BME280;22411;53.016;18.632;2024-03-29T08:59:16;98880.34;;;9.49;100.00
36380;BME280;22411;53.016;18.632;2024-03-29T09:01:45;98911.94;;;9.62;100.00
36380;BME280;22411;53.016;18.632;2024-03-29T09:04:11;98879.69;;;9.37;100.00
36380;BME280;22411;53.016;18.632;2024-03-29T09:06:38;98886.88;;;9.43;100.00
36380;BME280;22411;53.016;18.632;2024-03-29T09:09:07;98876.94;;;9.58;100.00
36380;BME280;22411;53.016;18.632;2024-03-29T09:11:33;98927.31;;;9.63;100.00
36380;BME280;22411;53.016;18.632;2024-03-29T09:13:59;98905.41;;;9.48;100.00
36380;BME280;22411;53.016;18.632;2024-03-29T09:16:27;98887.59;;;9.45;100.00
36380;BME280;22411;53.016;18.632;2024-03-29T09:19:04;98901.47;;;9.44;100.00
36380;BME280;22411;53.016;18.632;2024-03-29T09:21:30;98903.91;;;9.65;100.00
36380;BME280;22411;53.016;18.632;2024-03-29T09:23:56;98900.06;;;9.79;100.00
36380;BME280;22411;53.016;18.632;2024-03-29T09:26:22;98896.91;;;9.94;100.00
36380;BME280;22411;53.016;18.632;2024-03-29T09:28:47;98895.34;;;10.21;100.00
36380;BME280;22411;53.016;18.632;2024-03-29T09:31:13;98916.81;;;9.84;100.00
36380;BME280;22411;53.016;18.632;2024-03-29T09:33:38;98904.97;;;9.91;100.00
36380;BME280;22411;53.016;18.632;2024-03-29T09:36:05;98903.41;;;10.18;100.00
36380;BME280;22411;53.016;18.632;2024-03-29T09:38:30;98890.06;;;10.13;100.00
36380;BME280;22411;53.016;18.632;2024-03-29T09:41:17;98900.28;;;10.24;100.00
36380;BME280;22411;53.016;18.632;2024-03-29T09:43:47;98914.88;;;10.53;100.00
36380;BME280;22411;53.016;18.632;2024-03-29T09:46:15;98923.56;;;10.61;100.00
36380;BME280;22411;53.016;18.632;2024-03-29T09:48:42;98931.78;;;10.57;100.00
36380;BME280;22411;53.016;18.632;2024-03-29T09:51:09;98934.34;;;10.29;100.00
36380;BME280;22411;53.016;18.632;2024-03-29T09:53:36;98927.44;;;10.47;100.00
36380;BME280;22411;53.016;18.632;2024-03-29T09:56:07;98927.69;;;10.54;98.82
36380;BME280;22411;53.016;18.632;2024-03-29T09:58:33;98932.53;;;10.67;100.00
36380;BME280;22411;53.016;18.632;2024-03-29T10:01:02;98948.56;;;10.80;100.00
36380;BME280;22411;53.016;18.632;2024-03-29T10:03:29;98932.38;;;10.96;97.88
36380;BME280;22411;53.016;18.632;2024-03-29T10:05:56;98935.41;;;10.91;100.00
36380;BME280;22411;53.016;18.632;2024-03-29T10:08:25;98929.53;;;11.17;97.17
36380;BME280;22411;53.016;18.632;2024-03-29T10:10:52;98923.03;;;11.31;93.08
36380;BME280;22411;53.016;18.632;2024-03-29T10:13:19;98923.59;;;11.07;90.10
36380;BME280;22411;53.016;18.632;2024-03-29T10:15:45;98920.31;;;10.87;92.95
36380;BME280;22411;53.016;18.632;2024-03-29T10:18:15;98951.38;;;10.59;96.60
36380;BME280;22411;53.016;18.632;2024-03-29T10:20:41;98946.41;;;10.76;95.56
36380;BME280;22411;53.016;18.632;2024-03-29T10:23:06;98943.94;;;11.29;90.99
36380;BME280;22411;53.016;18.632;2024-03-29T10:25:34;98952.31;;;11.59;81.30
36380;BME280;22411;53.016;18.632;2024-03-29T10:28:00;98942.69;;;11.51;86.03
36380;BME280;22411;53.016;18.632;2024-03-29T10:30:28;98949.78;;;11.31;85.33
36380;BME280;22411;53.016;18.632;2024-03-29T10:32:57;98944.97;;;11.18;87.35
36380;BME280;22411;53.016;18.632;2024-03-29T10:35:26;98946.91;;;11.34;87.86
36380;BME280;22411;53.016;18.632;2024-03-29T10:37:53;98944.69;;;11.39;86.72
36380;BME280;22411;53.016;18.632;2024-03-29T10:40:21;98938.59;;;11.48;86.77
36380;BME280;22411;53.016;18.632;2024-03-29T10:42:48;98940.00;;;11.78;86.66
36380;BME280;22411;53.016;18.632;2024-03-29T10:45:14;98921.16;;;12.20;84.84
36380;BME280;22411;53.016;18.632;2024-03-29T10:47:43;98913.41;;;12.28;77.14
36380;BME280;22411;53.016;18.632;2024-03-29T10:50:11;98922.13;;;12.19;77.70
36380;BME280;22411;53.016;18.632;2024-03-29T10:52:39;98963.94;;;12.08;72.47
36380;BME280;22411;53.016;18.632;2024-03-29T10:55:08;98930.75;;;12.20;72.02
36380;BME280;22411;53.016;18.632;2024-03-29T10:57:35;98931.84;;;12.43;73.07
36380;BME280;22411;53.016;18.632;2024-03-29T11:00:15;98944.34;;;12.48;69.19
36380;BME280;22411;53.016;18.632;2024-03-29T11:05:43;98933.69;;;11.81;76.62
36380;BME280;22411;53.016;18.632;2024-03-29T11:08:11;98936.13;;;12.26;73.94
36380;BME280;22411;53.016;18.632;2024-03-29T11:10:42;98932.31;;;12.73;70.45
36380;BME280;22411;53.016;18.632;2024-03-29T11:13:28;98926.97;;;13.25;68.56
36380;BME280;22411;53.016;18.632;2024-03-29T11:15:59;98931.22;;;13.50;62.79
36380;BME280;22411;53.016;18.632;2024-03-29T11:18:26;98928.63;;;13.58;55.86
36380;BME280;22411;53.016;18.632;2024-03-29T11:20:54;98938.03;;;13.59;54.95
36380;BME280;22411;53.016;18.632;2024-03-29T11:23:21;98948.13;;;12.88;60.24
36380;BME280;22411;53.016;18.632;2024-03-29T11:25:52;98952.84;;;13.59;56.57
36380;BME280;22411;53.016;18.632;2024-03-29T11:28:28;98939.03;;;13.58;53.40
36380;BME280;22411;53.016;18.632;2024-03-29T11:31:01;98931.22;;;13.67;55.67
36380;BME280;22411;53.016;18.632;2024-03-29T11:33:44;98957.03;;;14.33;51.44
36380;BME280;22411;53.016;18.632;2024-03-29T11:38:37;98926.16;;;14.14;53.33
36380;BME280;22411;53.016;18.632;2024-03-29T11:41:04;98944.88;;;14.09;50.22
36380;BME280;22411;53.016;18.632;2024-03-29T11:43:31;98960.00;;;14.06;50.97
36380;BME280;22411;53.016;18.632;2024-03-29T11:46:01;98933.81;;;13.58;51.57
36380;BME280;22411;53.016;18.632;2024-03-29T11:48:29;98945.06;;;13.83;48.36
36380;BME280;22411;53.016;18.632;2024-03-29T11:50:55;98949.44;;;13.99;48.62
36380;BME280;22411;53.016;18.632;2024-03-29T11:53:21;98935.47;;;13.92;48.67
36380;BME280;22411;53.016;18.632;2024-03-29T11:55:47;98943.91;;;13.53;51.50
36380;BME280;22411;53.016;18.632;2024-03-29T11:58:28;98940.31;;;13.71;53.79
36380;BME280;22411;53.016;18.632;2024-03-29T12:00:56;98928.31;;;13.62;51.14
36380;BME280;22411;53.016;18.632;2024-03-29T12:03:23;98943.44;;;13.50;51.74
36380;BME280;22411;53.016;18.632;2024-03-29T12:05:51;98924.22;;;13.51;53.38
36380;BME280;22411;53.016;18.632;2024-03-29T12:08:19;98915.94;;;13.88;51.24
36380;BME280;22411;53.016;18.632;2024-03-29T12:10:45;98942.75;;;14.29;47.89
36380;BME280;22411;53.016;18.632;2024-03-29T12:13:11;98953.25;;;14.44;46.57
36380;BME280;22411;53.016;18.632;2024-03-29T12:15:37;98927.09;;;14.13;46.33
36380;BME280;22411;53.016;18.632;2024-03-29T12:18:06;98931.72;;;13.62;48.25
36380;BME280;22411;53.016;18.632;2024-03-29T12:20:32;98957.75;;;14.03;47.79
36380;BME280;22411;53.016;18.632;2024-03-29T12:22:59;98932.28;;;14.37;47.93
36380;BME280;22411;53.016;18.632;2024-03-29T12:25:27;98943.53;;;14.85;47.16
36380;BME280;22411;53.016;18.632;2024-03-29T12:27:53;98936.63;;;15.01;44.81
36380;BME280;22411;53.016;18.632;2024-03-29T12:30:19;98935.59;;;15.41;42.98
36380;BME280;22411;53.016;18.632;2024-03-29T12:32:45;98937.78;;;15.52;42.75
36380;BME280;22411;53.016;18.632;2024-03-29T12:35:13;98912.97;;;15.02;43.63
36380;BME280;22411;53.016;18.632;2024-03-29T12:37:47;98931.47;;;15.69;42.70
36380;BME280;22411;53.016;18.632;2024-03-29T12:40:24;98936.78;;;15.76;41.32
36380;BME280;22411;53.016;18.632;2024-03-29T12:42:51;98940.44;;;16.42;40.88
36380;BME280;22411;53.016;18.632;2024-03-29T12:45:20;98924.00;;;16.63;38.15
36380;BME280;22411;53.016;18.632;2024-03-29T12:47:47;98934.22;;;16.88;38.56
36380;BME280;22411;53.016;18.632;2024-03-29T12:52:48;98952.06;;;15.64;38.13
36380;BME280;22411;53.016;18.632;2024-03-29T12:55:14;98925.50;;;15.61;38.63
36380;BME280;22411;53.016;18.632;2024-03-29T12:57:43;98930.47;;;15.25;39.31